createdAt,value
2023-03-27T11:19:20.266Z,1011.79
2023-03-27T11:54:31.143Z,1012.02
2023-03-27T11:55:32.435Z,1011.98
2023-03-27T11:56:31.103Z,1011.96
2023-03-27T12:27:28.710Z,1012.23
2023-03-27T12:28:28.644Z,1012.20
2023-03-27T12:29:28.638Z,1012.15
2023-03-27T12:30:28.615Z,1012.37
2023-03-27T12:31:28.654Z,1012.30
2023-03-27T12:32:28.615Z,1012.17
2023-03-27T12:33:28.543Z,1012.30
2023-03-27T13:02:51.641Z,1012.68
2023-03-27T13:03:51.736Z,1012.68
2023-03-27T13:04:51.514Z,1012.74
2023-03-27T13:05:51.535Z,1012.76
2023-03-27T13:06:51.465Z,1012.77
2023-03-27T13:07:53.498Z,1012.72
2023-03-27T13:08:51.437Z,1012.66
2023-03-27T13:09:51.402Z,1012.61
2023-03-27T13:10:51.396Z,1012.62
2023-03-27T13:11:51.391Z,1012.63
2023-03-27T13:12:51.347Z,1012.62
2023-03-27T13:13:51.311Z,1012.70
2023-03-27T13:14:51.287Z,1012.66
2023-03-27T13:15:51.330Z,1012.55
2023-03-27T13:16:51.299Z,1012.47
2023-03-27T13:17:51.262Z,1012.49
2023-03-27T13:18:52.229Z,1012.55
2023-03-27T13:19:51.175Z,1012.53
2023-03-27T13:20:51.180Z,1012.46
2023-03-27T13:21:51.172Z,1012.48
2023-03-27T13:22:51.119Z,1012.46
2023-03-27T13:23:51.132Z,1012.56
2023-03-27T13:24:51.099Z,1012.61
2023-03-27T13:25:51.053Z,1012.54
2023-03-27T13:26:51.061Z,1012.51
2023-03-27T13:27:51.074Z,1012.50
2023-03-27T13:28:51.049Z,1012.52
2023-03-27T13:29:50.994Z,1012.51
2023-03-27T13:30:50.986Z,1012.53
2023-03-27T13:31:50.959Z,1012.49
2023-03-27T13:32:51.007Z,1012.50
2023-03-27T13:33:50.910Z,1012.57
2023-03-27T13:34:50.933Z,1012.51
2023-03-27T13:35:52.733Z,1012.57
2023-03-27T13:36:50.868Z,1012.64
2023-03-27T13:37:50.870Z,1012.62
2023-03-27T13:38:50.848Z,1012.40
2023-03-27T13:39:50.808Z,1012.50
2023-03-27T13:40:50.800Z,1012.50
2023-03-27T13:41:50.775Z,1012.52
2023-03-27T13:42:50.781Z,1012.45
2023-03-27T13:43:50.775Z,1012.52
2023-03-27T13:44:50.757Z,1012.47
2023-03-27T13:45:50.736Z,1012.46
2023-03-27T13:46:50.761Z,1012.46
2023-03-27T13:47:50.722Z,1012.47
2023-03-27T13:48:50.725Z,1012.40
2023-03-27T13:49:50.663Z,1012.49
2023-03-27T13:50:50.660Z,1012.49
2023-03-27T13:51:50.638Z,1012.52
2023-03-27T13:52:50.632Z,1012.60
2023-03-27T13:53:50.644Z,1012.38
2023-03-27T13:54:50.621Z,1012.51
2023-03-27T13:55:50.586Z,1012.46
2023-03-27T13:56:50.629Z,1012.59
2023-03-27T13:57:50.568Z,1012.53
2023-03-27T13:58:50.550Z,1012.69
2023-03-27T13:59:50.549Z,1012.66
2023-03-27T14:00:50.530Z,1012.63
2023-03-27T14:01:50.536Z,1012.57
2023-03-27T14:02:50.584Z,1012.66
2023-03-27T14:03:50.561Z,1012.57
2023-03-27T14:04:50.469Z,1012.59
2023-03-27T14:05:50.425Z,1012.65
2023-03-27T14:06:50.442Z,1012.63
2023-03-27T14:29:00.024Z,1013.00
2023-03-27T14:30:00.009Z,1013.20
2023-03-27T14:30:59.964Z,1013.15
2023-03-27T14:32:00.030Z,1013.18
2023-03-27T14:32:59.930Z,1013.13
2023-03-27T14:33:59.892Z,1013.16
2023-03-27T14:34:59.863Z,1013.14
2023-03-27T14:35:59.988Z,1013.15
2023-03-27T14:36:59.850Z,1013.09
2023-03-27T14:37:59.834Z,1013.00
2023-03-27T14:38:59.810Z,1012.92
2023-03-27T14:39:59.781Z,1012.91
2023-03-27T14:40:59.782Z,1012.85
2023-03-27T14:41:59.743Z,1012.84
2023-03-27T14:42:59.719Z,1012.80
2023-03-27T14:43:59.728Z,1012.81
2023-03-27T14:44:59.685Z,1012.77
2023-03-27T14:45:59.954Z,1012.81
2023-03-27T14:46:59.686Z,1012.82
2023-03-27T14:47:59.737Z,1012.85
2023-03-27T14:52:19.754Z,1012.89
2023-03-27T14:53:19.725Z,1012.72
2023-03-27T15:09:39.520Z,1012.75
2023-03-27T15:12:45.681Z,1012.76
2023-03-27T15:13:47.933Z,1012.83
2023-03-27T15:14:45.609Z,1012.81
